createdAt,value
2022-12-18T00:00:05.323Z,73.22
2022-12-18T00:02:34.592Z,73.18
2022-12-18T00:05:02.698Z,72.57
2022-12-18T00:07:30.048Z,74.06
2022-12-18T00:09:57.801Z,74.41
2022-12-18T00:12:25.239Z,74.76
2022-12-18T00:14:53.157Z,74.99
2022-12-18T00:17:20.564Z,75.02
2022-12-18T00:19:49.846Z,76.49
2022-12-18T00:22:17.272Z,76.15
2022-12-18T00:24:45.174Z,76.05
2022-12-18T00:27:12.622Z,75.62
2022-12-18T00:29:40.520Z,74.92
2022-12-18T00:32:08.173Z,74.74
2022-12-18T00:34:36.067Z,76.11
2022-12-18T00:37:05.113Z,76.13
2022-12-18T00:39:33.240Z,76.58
2022-12-18T00:42:00.764Z,75.77
2022-12-18T00:44:28.661Z,75.51
2022-12-18T00:46:58.354Z,75.95
2022-12-18T00:49:29.465Z,75.78
2022-12-18T00:51:56.951Z,76.04
2022-12-18T00:54:26.763Z,75.84
2022-12-18T00:56:54.216Z,74.59
2022-12-18T00:59:22.362Z,73.80
2022-12-18T01:01:49.938Z,74.73
2022-12-18T01:04:18.092Z,75.11
2022-12-18T01:06:45.781Z,74.35
2022-12-18T01:09:13.826Z,74.11
2022-12-18T01:11:43.041Z,74.55
2022-12-18T01:14:11.008Z,74.27
2022-12-18T01:16:38.527Z,74.67
2022-12-18T01:19:06.427Z,74.03
2022-12-18T01:21:34.538Z,75.31
2022-12-18T01:24:02.740Z,75.18
2022-12-18T01:26:30.278Z,74.64
2022-12-18T01:28:59.666Z,75.48
2022-12-18T01:31:29.091Z,73.76
2022-12-18T01:33:58.004Z,73.65
2022-12-18T01:36:27.765Z,73.72
2022-12-18T01:38:56.583Z,73.25
2022-12-18T01:41:25.995Z,74.12
2022-12-18T01:43:55.715Z,73.48
2022-12-18T01:46:25.624Z,73.76
2022-12-18T01:48:56.804Z,74.12
2022-12-18T01:51:26.239Z,74.57
2022-12-18T01:53:54.397Z,75.51
2022-12-18T01:56:22.988Z,75.24
2022-12-18T01:59:03.158Z,75.30
2022-12-18T02:01:34.040Z,74.51
2022-12-18T02:04:21.950Z,74.72
2022-12-18T02:06:55.376Z,74.77
2022-12-18T02:09:31.836Z,74.50
2022-12-18T02:12:06.303Z,73.90
2022-12-18T02:14:39.720Z,73.56
2022-12-18T02:17:16.085Z,73.48
2022-12-18T02:19:56.156Z,74.08
2022-12-18T02:22:36.384Z,73.66
2022-12-18T02:25:21.860Z,74.03
2022-12-18T02:27:53.645Z,74.55
2022-12-18T02:30:22.878Z,73.51
2022-12-18T02:32:53.790Z,74.76
2022-12-18T02:35:24.891Z,74.31
2022-12-18T02:37:56.431Z,75.06
2022-12-18T02:40:27.602Z,74.69
2022-12-18T02:43:03.066Z,75.07
2022-12-18T02:45:30.955Z,74.53
2022-12-18T02:47:58.375Z,74.64
2022-12-18T02:50:35.803Z,73.85
2022-12-18T02:53:15.559Z,74.18
2022-12-18T02:55:56.268Z,73.80
2022-12-18T02:58:31.745Z,74.02
2022-12-18T03:01:03.993Z,73.64
2022-12-18T03:03:35.087Z,74.02
2022-12-18T03:06:07.035Z,73.27
2022-12-18T03:08:39.303Z,74.60
2022-12-18T03:11:09.898Z,74.62
2022-12-18T03:13:44.569Z,75.37
2022-12-18T03:16:16.241Z,75.54
2022-12-18T03:18:47.712Z,74.35
2022-12-18T03:21:19.940Z,74.04
2022-12-18T03:23:50.920Z,74.57
2022-12-18T03:26:23.702Z,73.20
2022-12-18T03:28:55.827Z,73.57
2022-12-18T03:31:27.279Z,72.48
2022-12-18T03:33:57.286Z,72.02
2022-12-18T03:36:25.650Z,71.68
2022-12-18T03:38:53.652Z,72.61
2022-12-18T03:41:32.767Z,71.56
2022-12-18T03:44:10.012Z,71.44
2022-12-18T03:46:48.529Z,72.51
2022-12-18T03:49:22.599Z,73.38
2022-12-18T03:51:55.870Z,74.41
2022-12-18T03:54:24.728Z,75.29
2022-12-18T03:56:58.435Z,76.51
2022-12-18T03:59:30.073Z,76.26
2022-12-18T04:02:00.713Z,75.66
2022-12-18T04:04:29.937Z,76.74
2022-12-18T04:06:59.446Z,76.37
2022-12-18T04:09:27.221Z,75.79
2022-12-18T04:11:55.566Z,76.56
2022-12-18T04:14:23.057Z,77.72
2022-12-18T04:16:52.326Z,78.18
2022-12-18T04:19:19.783Z,78.33
2022-12-18T04:21:47.771Z,78.22
2022-12-18T04:24:15.184Z,79.95
2022-12-18T04:26:43.074Z,78.91
2022-12-18T04:29:10.471Z,78.38
2022-12-18T04:31:38.803Z,79.05
2022-12-18T04:34:07.862Z,79.49
2022-12-18T04:36:35.723Z,79.34
2022-12-18T04:39:03.224Z,79.11
2022-12-18T04:41:31.129Z,79.34
2022-12-18T04:43:58.580Z,80.20
2022-12-18T04:46:27.196Z,80.22
2022-12-18T04:48:54.534Z,80.32
2022-12-18T04:51:26.611Z,78.96
2022-12-18T04:53:54.499Z,77.25
2022-12-18T04:56:22.754Z,76.51
2022-12-18T04:58:50.334Z,74.99
2022-12-18T05:01:19.471Z,75.62
2022-12-18T05:03:47.277Z,76.22
2022-12-18T05:06:15.406Z,75.93
2022-12-18T05:08:44.271Z,75.32
2022-12-18T05:11:14.337Z,75.00
2022-12-18T05:13:42.081Z,76.13
2022-12-18T05:16:11.293Z,76.46
2022-12-18T05:18:38.834Z,75.09
2022-12-18T05:21:06.899Z,74.77
2022-12-18T05:23:34.341Z,76.47
2022-12-18T05:26:05.560Z,77.58
2022-12-18T05:28:35.248Z,78.80
2022-12-18T05:31:04.846Z,79.36
2022-12-18T05:33:34.253Z,78.95
2022-12-18T05:36:03.393Z,78.86
2022-12-18T05:38:32.811Z,78.94
2022-12-18T05:41:00.760Z,78.70
2022-12-18T05:43:29.788Z,78.82
2022-12-18T05:45:57.838Z,77.68
2022-12-18T05:48:25.463Z,77.02
2022-12-18T05:50:53.505Z,77.48
2022-12-18T05:53:22.087Z,78.05
2022-12-18T05:55:49.984Z,77.81
2022-12-18T05:58:17.597Z,78.04
2022-12-18T06:00:47.298Z,77.74
2022-12-18T06:03:15.553Z,77.90
2022-12-18T06:05:45.429Z,78.70
2022-12-18T06:08:13.622Z,78.55
2022-12-18T06:10:42.178Z,78.28
2022-12-18T06:13:09.860Z,78.51
2022-12-18T06:15:38.573Z,78.41
2022-12-18T06:18:07.828Z,78.64
2022-12-18T06:20:35.916Z,79.07
2022-12-18T06:23:03.515Z,79.33
2022-12-18T06:25:31.753Z,79.57
2022-12-18T06:27:59.118Z,79.53
2022-12-18T06:30:27.067Z,78.97
2022-12-18T06:32:56.734Z,78.92
2022-12-18T06:35:26.365Z,78.66
2022-12-18T06:37:53.713Z,77.82
2022-12-18T06:40:21.867Z,78.95
2022-12-18T06:42:49.709Z,78.89
2022-12-18T06:45:20.099Z,79.18
2022-12-18T06:47:47.732Z,79.31
2022-12-18T06:50:15.966Z,78.69
2022-12-18T06:52:45.004Z,78.13
2022-12-18T06:55:12.867Z,78.47
2022-12-18T06:57:40.308Z,78.10
2022-12-18T07:00:09.305Z,77.83
2022-12-18T07:02:37.039Z,78.76
2022-12-18T07:05:10.540Z,79.78
2022-12-18T07:07:38.489Z,80.41
2022-12-18T07:10:08.577Z,79.35
2022-12-18T07:12:35.892Z,78.69
2022-12-18T07:15:04.579Z,79.03
2022-12-18T07:17:32.008Z,80.13
2022-12-18T07:19:59.795Z,79.91
2022-12-18T07:22:27.511Z,79.29
2022-12-18T07:24:55.527Z,79.46
2022-12-18T07:27:24.721Z,79.54
2022-12-18T07:29:52.915Z,78.61
2022-12-18T07:32:20.364Z,78.54
2022-12-18T07:34:48.421Z,77.69
2022-12-18T07:37:15.816Z,77.67
2022-12-18T07:39:43.946Z,78.58
2022-12-18T07:42:11.546Z,79.02
2022-12-18T07:44:40.891Z,78.90
2022-12-18T07:47:12.005Z,79.17
2022-12-18T07:49:40.374Z,79.43
2022-12-18T07:52:07.866Z,79.52
2022-12-18T07:54:36.162Z,79.26
2022-12-18T07:57:03.790Z,78.12
2022-12-18T07:59:31.619Z,78.38
2022-12-18T08:02:00.974Z,78.67
2022-12-18T08:04:28.946Z,78.94
2022-12-18T08:06:56.791Z,79.94
2022-12-18T08:09:24.514Z,80.07
2022-12-18T08:11:52.135Z,80.38
2022-12-18T08:14:20.303Z,80.53
2022-12-18T08:16:47.915Z,80.27
2022-12-18T08:19:17.614Z,79.73
2022-12-18T08:21:47.966Z,79.35
2022-12-18T08:24:16.048Z,78.87
2022-12-18T08:26:51.814Z,78.73
2022-12-18T08:29:29.042Z,77.92
2022-12-18T08:31:56.797Z,77.92
2022-12-18T08:34:26.177Z,77.27
2022-12-18T08:36:53.571Z,76.74
2022-12-18T08:39:21.531Z,76.77
2022-12-18T08:41:49.062Z,76.68
2022-12-18T08:44:16.869Z,75.92
2022-12-18T08:46:44.982Z,77.04
2022-12-18T08:49:13.336Z,77.23
2022-12-18T08:51:42.482Z,77.30
2022-12-18T08:54:12.642Z,77.43
2022-12-18T08:56:40.099Z,77.64
2022-12-18T08:59:08.193Z,77.90
2022-12-18T09:01:38.877Z,77.78
2022-12-18T09:04:06.959Z,77.19
2022-12-18T09:06:35.832Z,77.59
2022-12-18T09:09:06.765Z,77.02
2022-12-18T09:11:34.201Z,78.06
2022-12-18T09:14:02.651Z,79.00
2022-12-18T09:16:32.263Z,78.22
2022-12-18T09:19:01.130Z,77.71
2022-12-18T09:21:30.880Z,77.23
2022-12-18T09:23:59.538Z,77.47
2022-12-18T09:26:28.827Z,76.90
2022-12-18T09:28:57.240Z,76.11
2022-12-18T09:31:25.983Z,78.24
2022-12-18T09:33:55.757Z,77.46
2022-12-18T09:36:26.159Z,77.52
2022-12-18T09:38:54.223Z,77.80
2022-12-18T09:41:40.315Z,77.05
2022-12-18T09:44:17.268Z,76.94
2022-12-18T09:46:48.389Z,77.54
2022-12-18T09:49:20.066Z,76.65
2022-12-18T09:51:52.512Z,77.26
2022-12-18T09:56:54.194Z,75.80
2022-12-18T09:59:27.666Z,76.17
2022-12-18T10:02:01.444Z,75.97
2022-12-18T10:04:33.302Z,74.83
2022-12-18T10:07:09.388Z,75.07
2022-12-18T10:09:42.574Z,74.75
2022-12-18T10:12:23.618Z,75.49
2022-12-18T10:14:58.416Z,75.58
2022-12-18T10:17:33.474Z,76.34
2022-12-18T10:20:05.594Z,76.68
2022-12-18T10:22:47.618Z,77.47
2022-12-18T10:25:23.309Z,77.96
2022-12-18T10:27:57.392Z,77.17
2022-12-18T10:30:26.670Z,78.29
2022-12-18T10:32:54.093Z,79.67
2022-12-18T10:35:24.860Z,80.11
2022-12-18T10:38:07.563Z,79.99
2022-12-18T10:40:50.762Z,79.53
2022-12-18T10:43:23.918Z,79.77
2022-12-18T10:46:17.035Z,78.61
2022-12-18T10:48:54.824Z,78.47
2022-12-18T10:51:25.881Z,78.21
2022-12-18T10:53:57.319Z,78.97
2022-12-18T10:56:27.397Z,78.44
2022-12-18T10:59:01.803Z,78.54
2022-12-18T11:01:45.917Z,78.12
2022-12-18T11:04:18.679Z,77.52
2022-12-18T11:06:57.335Z,76.81
2022-12-18T11:09:26.523Z,77.11
2022-12-18T11:11:56.962Z,77.57
2022-12-18T11:14:28.902Z,77.98
2022-12-18T11:19:54.269Z,76.76
2022-12-18T11:22:25.344Z,77.31
2022-12-18T11:25:30.091Z,78.48
2022-12-18T11:27:50.502Z,78.16
2022-12-18T11:30:25.808Z,78.17
2022-12-18T11:32:58.263Z,78.19
2022-12-18T11:35:36.559Z,76.77
2022-12-18T11:38:13.515Z,78.14
2022-12-18T11:40:46.305Z,78.58
2022-12-18T11:43:17.264Z,78.66
2022-12-18T11:45:53.699Z,78.63
2022-12-18T11:48:26.545Z,78.91
2022-12-18T11:50:56.049Z,78.49
2022-12-18T11:53:25.863Z,78.44
2022-12-18T11:56:05.996Z,78.52
2022-12-18T11:58:56.552Z,79.29
2022-12-18T12:01:44.018Z,79.84
2022-12-18T12:04:42.845Z,80.28
2022-12-18T12:07:26.021Z,79.52
2022-12-18T12:10:07.118Z,80.28
2022-12-18T12:12:49.533Z,79.27
2022-12-18T12:15:38.624Z,79.29
2022-12-18T12:18:20.137Z,79.43
2022-12-18T12:20:59.156Z,80.28
2022-12-18T12:23:35.406Z,80.22
2022-12-18T12:26:08.974Z,80.27
2022-12-18T12:28:43.543Z,80.29
2022-12-18T12:31:24.735Z,80.68
2022-12-18T12:34:02.726Z,81.19
2022-12-18T12:36:42.302Z,80.28
2022-12-18T12:39:17.532Z,79.89
2022-12-18T12:41:47.659Z,79.86
2022-12-18T12:44:20.218Z,79.12
2022-12-18T12:46:49.645Z,79.12
2022-12-18T12:49:28.776Z,79.86
2022-12-18T12:52:07.121Z,80.02
2022-12-18T12:54:36.404Z,79.83
2022-12-18T12:57:14.028Z,79.50
2022-12-18T12:59:52.345Z,79.00
2022-12-18T13:02:29.958Z,79.79
2022-12-18T13:05:08.724Z,79.46
2022-12-18T13:07:40.930Z,78.98
2022-12-18T13:10:33.808Z,79.64
2022-12-18T13:13:04.396Z,79.99
2022-12-18T13:15:40.048Z,80.44
2022-12-18T13:18:17.025Z,79.75
2022-12-18T13:20:53.075Z,79.85
2022-12-18T13:23:32.855Z,79.44
2022-12-18T13:26:28.139Z,79.44
2022-12-18T13:29:02.445Z,80.06
2022-12-18T13:31:59.315Z,80.82
2022-12-18T13:34:30.102Z,80.89
2022-12-18T13:37:37.017Z,80.95
2022-12-18T13:40:41.238Z,80.96
2022-12-18T13:43:33.931Z,80.41
2022-12-18T13:46:18.885Z,80.48
2022-12-18T13:48:56.234Z,80.78
2022-12-18T13:51:25.095Z,80.12
2022-12-18T13:53:55.681Z,80.92
2022-12-18T13:56:25.753Z,80.65
2022-12-18T13:59:15.423Z,80.69
2022-12-18T14:01:53.688Z,81.10
2022-12-18T14:04:24.976Z,81.37
2022-12-18T14:06:56.633Z,81.65
2022-12-18T14:09:27.783Z,80.85
2022-12-18T14:11:58.381Z,81.14
2022-12-18T14:14:32.468Z,81.57
2022-12-18T14:17:03.285Z,82.06
2022-12-18T14:19:33.126Z,82.44
2022-12-18T14:22:01.943Z,82.59
2022-12-18T14:24:29.678Z,82.45
2022-12-18T14:27:20.574Z,83.51
2022-12-18T14:29:48.150Z,83.19
2022-12-18T14:32:19.225Z,83.88
2022-12-18T14:34:48.309Z,83.50
2022-12-18T14:37:21.271Z,83.73
2022-12-18T14:39:56.766Z,84.06
2022-12-18T14:42:25.764Z,84.29
2022-12-18T14:45:14.133Z,84.05
2022-12-18T14:47:46.031Z,83.82
2022-12-18T14:50:15.371Z,83.32
2022-12-18T14:52:43.872Z,83.23
2022-12-18T14:55:17.183Z,83.94
2022-12-18T14:57:45.796Z,84.35
2022-12-18T15:00:18.416Z,84.93
2022-12-18T15:02:51.231Z,85.68
2022-12-18T15:05:21.429Z,84.93
2022-12-18T15:07:53.140Z,84.97
2022-12-18T15:10:23.238Z,84.90
2022-12-18T15:13:09.738Z,85.08
2022-12-18T15:15:49.874Z,85.61
2022-12-18T15:18:25.511Z,85.83
2022-12-18T15:20:56.432Z,86.11
2022-12-18T15:23:27.711Z,85.85
2022-12-18T15:26:01.065Z,85.77
2022-12-18T15:28:33.757Z,86.60
2022-12-18T15:31:21.449Z,85.55
2022-12-18T15:34:12.139Z,85.86
2022-12-18T15:36:41.192Z,86.56
2022-12-18T15:39:14.120Z,87.30
2022-12-18T15:41:43.511Z,87.40
2022-12-18T15:44:25.491Z,87.14
2022-12-18T15:46:54.061Z,86.93
2022-12-18T15:49:24.477Z,86.71
2022-12-18T15:51:54.909Z,86.65
2022-12-18T15:54:25.587Z,86.60
2022-12-18T15:56:54.438Z,86.59
2022-12-18T15:59:25.231Z,86.85
2022-12-18T16:01:55.177Z,86.60
2022-12-18T16:04:25.546Z,86.89
2022-12-18T16:07:14.568Z,88.09
2022-12-18T16:09:47.599Z,87.94
2022-12-18T16:12:18.783Z,87.15
2022-12-18T16:14:49.602Z,87.30
2022-12-18T16:17:20.519Z,87.16
2022-12-18T16:19:53.236Z,87.77
2022-12-18T16:22:24.801Z,88.28
2022-12-18T16:24:58.959Z,89.14
2022-12-18T16:27:30.077Z,89.29
2022-12-18T16:30:01.831Z,89.62
2022-12-18T16:32:30.652Z,89.38
2022-12-18T16:35:03.127Z,89.21
2022-12-18T16:37:32.219Z,89.66
2022-12-18T16:40:01.534Z,89.50
2022-12-18T16:42:32.284Z,89.39
2022-12-18T16:45:04.167Z,88.92
2022-12-18T16:47:35.011Z,89.26
2022-12-18T16:50:10.325Z,89.44
2022-12-18T16:52:39.150Z,90.27
2022-12-18T16:55:10.075Z,90.90
2022-12-18T16:57:39.820Z,90.44
2022-12-18T17:00:11.131Z,89.65
2022-12-18T17:02:40.578Z,89.90
2022-12-18T17:05:12.561Z,90.76
2022-12-18T17:07:42.542Z,90.09
2022-12-18T17:10:13.262Z,89.74
2022-12-18T17:12:42.324Z,89.18
2022-12-18T17:15:15.866Z,89.34
2022-12-18T17:17:44.723Z,88.40
2022-12-18T17:20:15.711Z,88.38
2022-12-18T17:22:43.892Z,89.20
2022-12-18T17:25:12.505Z,88.80
2022-12-18T17:27:40.235Z,87.53
2022-12-18T17:30:16.950Z,88.09
2022-12-18T17:32:45.009Z,88.04
2022-12-18T17:35:14.748Z,87.73
2022-12-18T17:37:42.406Z,86.88
2022-12-18T17:40:12.133Z,87.19
2022-12-18T17:42:41.227Z,86.51
2022-12-18T17:45:12.321Z,86.88
2022-12-18T17:47:40.942Z,87.48
2022-12-18T17:50:10.929Z,86.59
2022-12-18T17:52:41.241Z,86.66
2022-12-18T17:55:10.933Z,87.34
2022-12-18T17:57:38.861Z,86.95
2022-12-18T18:00:11.059Z,86.63
2022-12-18T18:02:39.308Z,86.84
2022-12-18T18:05:09.384Z,86.40
2022-12-18T18:07:40.758Z,86.02
2022-12-18T18:10:10.022Z,87.45
2022-12-18T18:12:39.581Z,87.59
2022-12-18T18:15:10.515Z,87.23
2022-12-18T18:17:38.984Z,86.50
2022-12-18T18:20:08.265Z,87.04
2022-12-18T18:22:36.192Z,87.02
2022-12-18T18:25:06.810Z,86.15
2022-12-18T18:27:38.680Z,87.55
2022-12-18T18:30:08.653Z,87.26
2022-12-18T18:32:36.423Z,86.89
2022-12-18T18:35:05.320Z,86.17
2022-12-18T18:37:32.984Z,86.26
2022-12-18T18:40:04.185Z,85.54
2022-12-18T18:42:33.499Z,86.24
2022-12-18T18:45:05.174Z,86.37
2022-12-18T18:47:32.908Z,86.24
2022-12-18T18:50:00.942Z,86.36
2022-12-18T18:52:28.644Z,86.68
2022-12-18T18:55:12.929Z,86.89
2022-12-18T18:57:43.151Z,85.69
2022-12-18T19:00:12.618Z,85.55
2022-12-18T19:02:40.678Z,86.00
2022-12-18T19:05:09.416Z,85.85
2022-12-18T19:07:37.502Z,86.44
2022-12-18T19:10:06.996Z,85.64
2022-12-18T19:12:35.315Z,85.56
2022-12-18T19:15:08.065Z,86.30
2022-12-18T19:17:35.702Z,85.91
2022-12-18T19:20:04.955Z,85.24
2022-12-18T19:22:32.967Z,86.35
2022-12-18T19:25:00.882Z,86.02
2022-12-18T19:27:28.591Z,86.50
2022-12-18T19:29:56.980Z,86.38
2022-12-18T19:32:26.079Z,85.97
2022-12-18T19:34:54.267Z,86.39
2022-12-18T19:37:22.025Z,86.71
2022-12-18T19:39:50.305Z,86.32
2022-12-18T19:42:24.907Z,86.33
2022-12-18T19:44:54.546Z,86.15
2022-12-18T19:47:22.095Z,86.54
2022-12-18T19:49:51.605Z,86.11
2022-12-18T19:52:19.555Z,86.87
2022-12-18T19:54:48.026Z,86.64
2022-12-18T19:57:15.986Z,87.33
2022-12-18T19:59:44.447Z,87.29
2022-12-18T20:02:14.169Z,86.38
2022-12-18T20:04:42.495Z,86.21
2022-12-18T20:07:11.467Z,86.72
2022-12-18T20:09:39.753Z,85.91
2022-12-18T20:12:08.714Z,86.34
2022-12-18T20:14:36.776Z,86.82
2022-12-18T20:17:04.351Z,86.88
2022-12-18T20:19:34.162Z,86.08
2022-12-18T20:22:02.382Z,85.76
2022-12-18T20:24:34.483Z,85.41
2022-12-18T20:27:02.468Z,85.72
2022-12-18T20:29:30.370Z,85.04
2022-12-18T20:31:58.562Z,86.37
2022-12-18T20:34:26.864Z,86.78
2022-12-18T20:36:54.829Z,85.81
2022-12-18T20:39:23.861Z,86.58
2022-12-18T20:41:53.856Z,85.67
2022-12-18T20:44:24.008Z,86.44
2022-12-18T20:46:53.491Z,86.44
2022-12-18T20:49:21.909Z,85.90
2022-12-18T20:51:53.099Z,86.49
2022-12-18T20:54:22.151Z,85.56
2022-12-18T20:56:50.115Z,85.65
2022-12-18T20:59:19.637Z,85.58
2022-12-18T21:01:48.163Z,85.09
2022-12-18T21:04:18.428Z,85.40
2022-12-18T21:06:51.433Z,84.40
2022-12-18T21:09:21.031Z,83.65
2022-12-18T21:11:48.724Z,84.08
2022-12-18T21:14:18.425Z,84.70
2022-12-18T21:16:48.310Z,84.21
2022-12-18T21:19:17.892Z,83.52
2022-12-18T21:21:46.095Z,83.82
2022-12-18T21:24:14.503Z,83.88
2022-12-18T21:26:45.730Z,83.06
2022-12-18T21:29:15.645Z,83.05
2022-12-18T21:31:44.215Z,83.96
2022-12-18T21:34:19.126Z,83.91
2022-12-18T21:36:47.262Z,83.56
2022-12-18T21:39:16.039Z,84.15
2022-12-18T21:41:43.868Z,83.89
2022-12-18T21:44:13.246Z,84.49
2022-12-18T21:46:42.960Z,84.56
2022-12-18T21:49:13.990Z,83.80
2022-12-18T21:51:41.582Z,84.90
2022-12-18T21:54:09.390Z,84.50
2022-12-18T21:56:47.346Z,84.17
2022-12-18T21:59:16.768Z,84.02
2022-12-18T22:01:44.512Z,83.38
2022-12-18T22:04:14.943Z,83.50
2022-12-18T22:06:43.023Z,82.17
2022-12-18T22:09:13.155Z,82.42
2022-12-18T22:11:40.895Z,82.83
2022-12-18T22:14:09.198Z,83.77
2022-12-18T22:16:36.906Z,84.22
2022-12-18T22:19:06.798Z,84.64
2022-12-18T22:21:37.729Z,84.00
2022-12-18T22:24:07.626Z,84.03
2022-12-18T22:26:40.102Z,84.92
2022-12-18T22:29:13.225Z,84.49
2022-12-18T22:31:41.227Z,84.94
2022-12-18T22:34:09.568Z,84.49
2022-12-18T22:36:40.275Z,84.33
2022-12-18T22:39:11.964Z,83.42
2022-12-18T22:41:39.459Z,83.67
2022-12-18T22:44:10.431Z,83.28
2022-12-18T22:46:45.295Z,83.51
2022-12-18T22:49:15.479Z,82.83
2022-12-18T22:51:44.908Z,82.00
2022-12-18T22:54:13.063Z,82.35
2022-12-18T22:56:40.678Z,82.84
2022-12-18T22:59:14.661Z,82.92
2022-12-18T23:01:42.268Z,82.62
2022-12-18T23:04:14.577Z,83.31
2022-12-18T23:06:42.915Z,82.53
2022-12-18T23:09:17.952Z,82.62
2022-12-18T23:11:45.802Z,82.59
2022-12-18T23:14:14.167Z,82.51
2022-12-18T23:16:41.680Z,82.71
2022-12-18T23:19:11.563Z,82.27
2022-12-18T23:21:39.254Z,83.43
2022-12-18T23:24:07.983Z,82.75
2022-12-18T23:26:36.833Z,82.32
2022-12-18T23:29:05.090Z,82.51
2022-12-18T23:31:34.440Z,82.54
2022-12-18T23:34:03.306Z,82.18
2022-12-18T23:36:37.620Z,82.58
2022-12-18T23:39:22.358Z,81.69
2022-12-18T23:41:59.255Z,81.04
2022-12-18T23:44:27.473Z,80.76
2022-12-18T23:46:55.599Z,81.35
2022-12-18T23:49:23.910Z,80.23
2022-12-18T23:51:54.237Z,80.59
2022-12-18T23:54:33.070Z,80.40
2022-12-18T23:57:02.960Z,81.82
2022-12-18T23:59:31.214Z,81.89
